Huvudsida
METAR-TAF:

METAR-TAF

Flygplatser :

Ankara Esenboğa, Turkiet

latitud: 40-07N, longitud: 032-59E, höjd: 953 m

Aktuellt väderrapport

Denna rapport gjordes för 45 minuter sedan, klockan 13:20 UTC
Vind 1 kt varierande vindriktning
Temperatur 20°C
Fuktighet 24%
Tryck 1021 hPa
Sikt 10 km eller mer
Inga moln under 1 500 m eller inga cumulonimbus

METAR: LTAC 121320Z VRB01KT CAVOK 20/M01 Q1021 NOSIG RMK RWY21L 01006KT 330V050 RWY03L 36004KT RWY21R 02007KT

Tid: 17:05 (14:05 UTC)

Väderprognos

Denna rapport gjordes för 3 timmar och 25 minuter sedan, klockan 10:40 UTC
Prognos gäller från 12 kl. 12 UTC till 13 kl. 12 UTC
Vind 2 kt varierande vindriktning
Sikt 10 km eller mer
Inga moln under 1 500 m eller inga cumulonimbus
Blir
från 13 kl. 10 UTC till 13 kl. 12 UTC
Spridda moln på en höjd av 4000 ft
Brutna moln på en höjd av 10000 ft

TAF: LTAC 121040Z 1212/1312 VRB02KT CAVOK BECMG 1310/1312 SCT040 BKN100

Aktuella väderrapporter och prognoser från 4000 flygplatser (METAR- och TAF-rapporter).

De tillgängliga stationerna syns som gula och röda prickar på kartan.

För musen över prickarna för att se namnen på stationerna.

Klicka sedan för att få väderrapporter och prognoser.

För att ändra kartan: Klicka på de gröna knapparna med ett svart kors på för att zooma in; den gröna knappen med ett streck på för att zooma ut; eller på de gröna pilarna för angränsande kartor.


METAR-TAF: